createdAt,value
2018-12-21T00:00:29.733Z,5.70
2018-12-21T00:03:04.227Z,5.60
2018-12-21T00:05:38.779Z,5.50
2018-12-21T00:08:13.010Z,5.50
2018-12-21T00:10:47.451Z,5.40
2018-12-21T00:13:21.702Z,5.30
2018-12-21T00:15:56.057Z,5.40
2018-12-21T00:18:30.451Z,5.40
2018-12-21T00:21:04.908Z,5.40
2018-12-21T00:23:39.316Z,5.40
2018-12-21T00:26:13.712Z,5.50
2018-12-21T00:28:48.119Z,5.60
2018-12-21T00:31:27.843Z,5.50
2018-12-21T00:34:07.455Z,5.60
2018-12-21T00:36:47.430Z,5.60
2018-12-21T00:39:27.113Z,5.50
2018-12-21T00:42:00.761Z,5.50
2018-12-21T00:44:37.884Z,5.50
2018-12-21T00:47:14.717Z,5.40
2018-12-21T00:49:49.196Z,5.50
2018-12-21T00:52:23.515Z,5.40
2018-12-21T00:54:57.781Z,5.30
2018-12-21T00:57:32.203Z,5.30
2018-12-21T01:00:10.298Z,5.20
2018-12-21T01:02:44.785Z,5.20
2018-12-21T01:05:19.276Z,5.30
2018-12-21T01:07:53.528Z,5.40
2018-12-21T01:10:27.779Z,5.50
2018-12-21T01:13:02.074Z,5.60
2018-12-21T01:15:36.394Z,5.60
2018-12-21T01:18:17.109Z,5.70
2018-12-21T01:20:51.435Z,5.70
2018-12-21T01:23:25.725Z,5.80
2018-12-21T01:26:00.018Z,5.80
2018-12-21T01:28:34.400Z,5.80
2018-12-21T01:31:08.692Z,5.90
2018-12-21T01:33:42.988Z,5.90
2018-12-21T01:36:17.353Z,5.80
2018-12-21T01:38:51.689Z,5.80
2018-12-21T01:41:25.918Z,5.90
2018-12-21T01:44:00.262Z,6.00
2018-12-21T01:46:34.593Z,6.00
2018-12-21T01:49:09.040Z,6.00
2018-12-21T01:51:47.135Z,6.10
2018-12-21T01:54:19.596Z,6.20
2018-12-21T01:56:53.966Z,6.30
2018-12-21T01:59:29.259Z,6.50
2018-12-21T02:02:03.614Z,6.50
2018-12-21T02:04:37.977Z,6.60
2018-12-21T02:07:12.338Z,6.60
2018-12-21T02:09:46.816Z,6.60
2018-12-21T02:12:21.175Z,6.60
2018-12-21T02:14:55.649Z,6.70
2018-12-21T02:17:29.981Z,6.70
2018-12-21T02:20:04.601Z,6.70
2018-12-21T02:22:40.063Z,6.60
2018-12-21T02:25:14.307Z,6.60
2018-12-21T02:27:49.699Z,6.60
2018-12-21T02:30:24.124Z,6.60
2018-12-21T02:32:58.396Z,6.60
2018-12-21T02:35:32.812Z,6.50
2018-12-21T02:38:07.050Z,6.50
2018-12-21T02:40:41.299Z,6.60
2018-12-21T02:43:15.722Z,6.70
2018-12-21T02:45:50.080Z,6.80
2018-12-21T02:48:24.354Z,6.90
2018-12-21T02:50:58.724Z,6.90
2018-12-21T02:53:33.012Z,7.00
2018-12-21T02:56:11.095Z,7.00
2018-12-21T02:58:45.700Z,7.00
2018-12-21T03:01:20.179Z,6.90
2018-12-21T03:03:54.455Z,7.00
2018-12-21T03:06:29.089Z,6.90
2018-12-21T03:09:05.296Z,6.80
2018-12-21T03:11:39.646Z,6.90
2018-12-21T03:14:14.166Z,6.90
2018-12-21T03:16:48.643Z,6.80
2018-12-21T03:19:23.045Z,6.80
2018-12-21T03:21:57.291Z,6.70
2018-12-21T03:24:31.880Z,6.70
2018-12-21T03:27:06.168Z,6.70
2018-12-21T03:29:40.535Z,6.70
2018-12-21T03:32:14.832Z,6.70
2018-12-21T03:34:49.393Z,6.70
2018-12-21T03:37:23.760Z,6.80
2018-12-21T03:39:58.018Z,6.80
2018-12-21T03:42:32.589Z,6.70
2018-12-21T03:45:07.134Z,6.70
2018-12-21T03:47:41.491Z,6.50
2018-12-21T03:50:15.959Z,6.70
2018-12-21T03:52:50.289Z,6.70
2018-12-21T03:55:24.749Z,6.60
2018-12-21T03:57:59.121Z,6.50
2018-12-21T04:00:33.371Z,6.50
2018-12-21T04:03:07.618Z,6.50
2018-12-21T04:05:42.026Z,6.40
2018-12-21T04:08:16.542Z,6.50
2018-12-21T04:10:50.909Z,6.50
2018-12-21T04:13:25.486Z,6.50
2018-12-21T04:15:59.724Z,6.50
2018-12-21T04:18:34.099Z,6.60
2018-12-21T04:21:08.442Z,6.60
2018-12-21T04:23:42.722Z,6.50
2018-12-21T04:26:17.163Z,6.40
2018-12-21T04:28:51.647Z,6.30
2018-12-21T04:31:25.880Z,6.20
2018-12-21T04:34:00.245Z,6.10
2018-12-21T04:36:34.501Z,6.10
2018-12-21T04:39:08.750Z,6.10
2018-12-21T04:41:43.105Z,6.00
2018-12-21T04:44:17.772Z,6.00
2018-12-21T04:46:52.311Z,6.00
2018-12-21T04:49:26.563Z,6.10
2018-12-21T04:52:00.893Z,6.00
2018-12-21T04:54:35.162Z,5.90
2018-12-21T04:57:09.401Z,5.80
2018-12-21T04:59:43.773Z,5.80
2018-12-21T05:02:18.004Z,5.80
2018-12-21T05:04:52.534Z,5.80
2018-12-21T05:07:26.832Z,5.80
2018-12-21T05:10:02.121Z,5.90
2018-12-21T05:12:36.513Z,5.90
2018-12-21T05:15:10.874Z,5.80
2018-12-21T05:17:45.137Z,5.70
2018-12-21T05:20:19.496Z,5.70
2018-12-21T05:22:53.770Z,5.80
2018-12-21T05:25:29.081Z,5.90
2018-12-21T05:28:03.413Z,5.90
2018-12-21T05:30:37.741Z,5.90
2018-12-21T05:33:12.128Z,5.90
2018-12-21T05:35:46.586Z,6.00
2018-12-21T05:38:20.961Z,6.10
2018-12-21T05:40:58.401Z,6.10
2018-12-21T05:43:32.809Z,6.30
2018-12-21T05:46:07.169Z,6.30
2018-12-21T05:48:41.381Z,6.30
2018-12-21T05:51:16.437Z,6.40
2018-12-21T05:53:50.819Z,6.60
2018-12-21T05:56:25.380Z,6.60
2018-12-21T05:58:59.890Z,6.80
2018-12-21T06:01:34.356Z,6.80
2018-12-21T06:04:08.578Z,6.80
2018-12-21T06:06:42.990Z,6.80
2018-12-21T06:09:17.202Z,6.80
2018-12-21T06:11:51.591Z,6.80
2018-12-21T06:14:25.949Z,7.00
2018-12-21T06:17:00.483Z,7.10
2018-12-21T06:19:34.897Z,7.10
2018-12-21T06:22:09.539Z,7.30
2018-12-21T06:24:43.953Z,7.40
2018-12-21T06:27:18.295Z,7.40
2018-12-21T06:29:52.529Z,7.40
2018-12-21T06:32:26.806Z,7.30
2018-12-21T06:35:01.256Z,7.30
2018-12-21T06:37:35.503Z,7.30
2018-12-21T06:40:09.840Z,7.30
2018-12-21T06:42:44.219Z,7.30
2018-12-21T06:45:18.632Z,7.40
2018-12-21T06:47:52.876Z,7.30
2018-12-21T06:50:27.115Z,7.40
2018-12-21T06:53:01.568Z,7.40
2018-12-21T06:55:36.016Z,7.30
2018-12-21T06:58:10.417Z,7.30
2018-12-21T07:00:44.648Z,7.20
2018-12-21T07:03:18.940Z,7.20
2018-12-21T07:05:53.159Z,7.30
2018-12-21T07:08:27.522Z,7.30
2018-12-21T07:11:01.862Z,7.20
2018-12-21T07:13:36.431Z,7.40
2018-12-21T07:16:10.868Z,7.50
2018-12-21T07:18:45.223Z,7.40
2018-12-21T07:21:19.487Z,7.30
2018-12-21T07:23:53.789Z,7.30
2018-12-21T07:26:28.030Z,7.40
2018-12-21T07:29:02.401Z,7.30
2018-12-21T07:31:36.742Z,7.30
2018-12-21T07:34:11.230Z,7.30
2018-12-21T07:36:45.583Z,7.30
2018-12-21T07:39:19.897Z,7.30
2018-12-21T07:41:54.130Z,7.30
2018-12-21T07:44:28.348Z,7.30
2018-12-21T07:47:02.934Z,7.20
2018-12-21T07:49:37.369Z,7.20
2018-12-21T07:52:11.612Z,7.20
2018-12-21T07:54:46.009Z,7.10
2018-12-21T07:57:20.512Z,7.20
2018-12-21T07:59:54.708Z,7.20
2018-12-21T08:02:29.068Z,7.30
2018-12-21T08:05:03.741Z,7.40
2018-12-21T08:07:38.067Z,7.40
2018-12-21T08:10:17.282Z,7.30
2018-12-21T08:12:51.637Z,7.40
2018-12-21T08:15:25.976Z,7.60
2018-12-21T08:18:00.640Z,7.60
2018-12-21T08:20:34.987Z,7.70
2018-12-21T08:23:09.364Z,7.80
2018-12-21T08:25:43.739Z,7.80
2018-12-21T08:28:22.890Z,7.90
2018-12-21T08:30:57.262Z,8.10
2018-12-21T08:33:31.463Z,8.10
2018-12-21T08:36:05.851Z,8.20
2018-12-21T08:38:40.062Z,8.40
2018-12-21T08:41:14.720Z,8.40
2018-12-21T08:43:49.300Z,8.60
2018-12-21T08:46:23.578Z,8.50
2018-12-21T08:48:58.002Z,8.60
2018-12-21T08:51:32.382Z,8.70
2018-12-21T08:54:06.798Z,8.70
2018-12-21T08:56:41.129Z,8.80
2018-12-21T08:59:15.384Z,8.80
2018-12-21T09:01:49.655Z,8.60
2018-12-21T09:04:31.975Z,8.70
2018-12-21T09:07:00.283Z,8.60
2018-12-21T09:09:34.517Z,8.60
2018-12-21T09:12:08.842Z,8.50
2018-12-21T09:14:43.049Z,8.60
2018-12-21T09:17:17.416Z,8.50
2018-12-21T09:19:51.628Z,8.50
2018-12-21T09:22:26.023Z,8.40
2018-12-21T09:25:00.366Z,8.50
2018-12-21T09:27:34.805Z,8.50
2018-12-21T09:30:12.212Z,8.40
2018-12-21T09:32:46.559Z,8.50
2018-12-21T09:35:20.936Z,8.50
2018-12-21T09:37:55.271Z,8.60
2018-12-21T09:40:29.612Z,8.50
2018-12-21T09:43:04.112Z,8.60
2018-12-21T09:45:38.528Z,8.70
2018-12-21T09:48:12.772Z,8.70
2018-12-21T09:50:46.995Z,8.70
2018-12-21T09:53:21.231Z,8.70
2018-12-21T09:55:55.652Z,8.60
2018-12-21T09:58:30.060Z,8.60
2018-12-21T10:01:04.473Z,8.60
2018-12-21T10:03:39.523Z,8.70
2018-12-21T10:06:13.926Z,8.70
2018-12-21T10:08:48.205Z,8.80
2018-12-21T10:11:22.416Z,8.80
2018-12-21T10:13:56.653Z,8.90
2018-12-21T10:16:31.050Z,8.90
2018-12-21T10:19:05.333Z,8.90
2018-12-21T10:21:39.636Z,9.00
2018-12-21T10:24:18.483Z,9.00
2018-12-21T10:26:50.266Z,8.90
2018-12-21T10:29:24.715Z,8.90
2018-12-21T10:31:59.060Z,8.90
2018-12-21T10:34:33.492Z,9.00
2018-12-21T10:37:07.841Z,9.00
2018-12-21T10:39:42.438Z,9.20
2018-12-21T10:42:16.765Z,9.20
2018-12-21T10:44:51.216Z,9.30
2018-12-21T10:47:25.496Z,9.40
2018-12-21T10:49:59.751Z,9.40
2018-12-21T10:52:34.159Z,9.50
2018-12-21T10:55:08.753Z,9.70
2018-12-21T10:57:42.973Z,9.70
2018-12-21T11:00:17.187Z,9.70
2018-12-21T11:02:52.098Z,9.80
2018-12-21T11:05:26.456Z,9.80
2018-12-21T11:08:01.011Z,9.90
2018-12-21T11:10:35.366Z,9.90
2018-12-21T11:13:09.582Z,9.90
2018-12-21T11:15:43.913Z,9.90
2018-12-21T11:18:18.174Z,9.90
2018-12-21T11:20:52.515Z,9.90
2018-12-21T11:23:26.989Z,10.00
2018-12-21T11:26:02.654Z,10.10
2018-12-21T11:28:37.043Z,10.10
2018-12-21T11:31:11.420Z,10.10
2018-12-21T11:33:45.643Z,10.10
2018-12-21T11:36:20.094Z,10.10
2018-12-21T11:38:54.517Z,10.20
2018-12-21T11:41:28.952Z,10.10
2018-12-21T11:44:04.080Z,10.20
2018-12-21T11:46:44.735Z,10.30
2018-12-21T11:49:21.310Z,10.30
2018-12-21T11:51:58.199Z,10.30
2018-12-21T11:54:34.985Z,10.40
2018-12-21T11:57:09.627Z,10.50
2018-12-21T12:02:19.897Z,10.60
2018-12-21T12:04:54.448Z,10.60
2018-12-21T12:07:28.925Z,10.60
2018-12-21T12:10:03.480Z,10.60
2018-12-21T12:12:39.327Z,10.60
2018-12-21T12:15:13.798Z,10.60
2018-12-21T12:17:48.040Z,10.70
2018-12-21T12:20:22.300Z,10.70
2018-12-21T12:22:56.671Z,10.60
2018-12-21T12:25:30.967Z,10.60
2018-12-21T12:28:05.290Z,10.50
2018-12-21T12:30:39.603Z,10.50
2018-12-21T12:33:13.857Z,10.40
2018-12-21T12:35:48.155Z,10.40
2018-12-21T12:38:22.456Z,10.40
2018-12-21T12:40:56.793Z,10.40
2018-12-21T12:43:31.042Z,10.30
2018-12-21T12:46:05.429Z,10.30
2018-12-21T12:48:40.901Z,10.30
2018-12-21T12:51:15.196Z,10.30
2018-12-21T12:53:49.782Z,10.40
2018-12-21T12:56:24.101Z,10.40
2018-12-21T12:58:58.325Z,10.40
2018-12-21T13:01:32.772Z,10.40
2018-12-21T13:04:07.097Z,10.40
2018-12-21T13:06:41.318Z,10.40
2018-12-21T13:09:15.667Z,10.50
2018-12-21T13:11:49.945Z,10.40
2018-12-21T13:14:24.293Z,10.40
2018-12-21T13:16:58.542Z,10.40
2018-12-21T13:19:32.894Z,10.40
2018-12-21T13:22:07.377Z,10.40
2018-12-21T13:24:41.601Z,10.50
2018-12-21T13:27:16.000Z,10.50
2018-12-21T13:29:50.358Z,10.40
2018-12-21T13:32:24.657Z,10.40
2018-12-21T13:34:58.967Z,10.40
2018-12-21T13:37:33.288Z,10.50
2018-12-21T13:40:10.631Z,10.50
2018-12-21T13:42:44.885Z,10.60
2018-12-21T13:45:19.261Z,10.60
2018-12-21T13:47:53.716Z,10.60
2018-12-21T13:50:28.041Z,10.60
2018-12-21T13:53:02.439Z,10.70
2018-12-21T13:55:36.655Z,10.70
2018-12-21T13:58:11.836Z,10.70
2018-12-21T14:00:46.202Z,10.70
2018-12-21T14:03:20.584Z,10.70
2018-12-21T14:05:54.958Z,10.70
2018-12-21T14:08:29.575Z,10.70
2018-12-21T14:11:03.949Z,10.70
2018-12-21T14:13:38.382Z,10.70
2018-12-21T14:16:12.647Z,10.70
2018-12-21T14:18:46.856Z,10.70
2018-12-21T14:21:21.244Z,10.70
2018-12-21T14:23:55.595Z,10.70
2018-12-21T14:26:29.947Z,10.60
2018-12-21T14:29:04.433Z,10.60
2018-12-21T14:31:38.945Z,10.50
2018-12-21T14:34:13.210Z,10.50
2018-12-21T14:36:47.473Z,10.50
2018-12-21T14:39:21.817Z,10.50
2018-12-21T14:41:56.293Z,10.50
2018-12-21T14:44:30.573Z,10.50
2018-12-21T14:47:04.792Z,10.60
2018-12-21T14:49:39.284Z,10.50
2018-12-21T14:52:13.669Z,10.60
2018-12-21T14:54:48.029Z,10.50
2018-12-21T14:57:22.318Z,10.50
2018-12-21T14:59:56.696Z,10.50
2018-12-21T15:02:31.005Z,10.50
2018-12-21T15:05:08.527Z,10.50
2018-12-21T15:07:46.748Z,10.60
2018-12-21T15:10:22.269Z,10.50
2018-12-21T15:13:03.662Z,10.60
2018-12-21T15:15:40.224Z,10.70
2018-12-21T15:18:14.569Z,10.60
2018-12-21T15:20:50.022Z,10.70
2018-12-21T15:23:24.274Z,10.60
2018-12-21T15:25:58.483Z,10.60
2018-12-21T15:28:32.895Z,10.60
2018-12-21T15:31:07.277Z,10.60
2018-12-21T15:33:41.717Z,10.60
2018-12-21T15:36:16.186Z,10.60
2018-12-21T15:38:50.392Z,10.70
2018-12-21T15:41:24.706Z,10.70
2018-12-21T15:43:59.009Z,10.70
2018-12-21T15:46:33.381Z,10.70
2018-12-21T15:49:07.649Z,10.70
2018-12-21T15:51:42.054Z,10.70
2018-12-21T15:54:16.606Z,10.70
2018-12-21T15:59:25.123Z,10.80
2018-12-21T16:01:59.394Z,10.70
2018-12-21T16:04:33.754Z,10.80
2018-12-21T16:07:08.037Z,10.80
2018-12-21T16:09:42.348Z,10.80
2018-12-21T16:12:16.673Z,10.80
2018-12-21T16:14:51.140Z,10.80
2018-12-21T16:17:25.492Z,10.90
2018-12-21T16:19:59.797Z,10.90
2018-12-21T16:22:42.105Z,10.90
2018-12-21T16:25:10.525Z,11.00
2018-12-21T16:27:44.856Z,11.00
2018-12-21T16:30:19.071Z,11.00
2018-12-21T16:32:53.399Z,11.00
2018-12-21T16:35:27.711Z,10.90
2018-12-21T16:38:02.007Z,10.90
2018-12-21T16:40:36.362Z,10.90
2018-12-21T16:43:10.588Z,10.90
2018-12-21T16:45:44.868Z,10.90
2018-12-21T16:48:19.106Z,10.90
2018-12-21T16:50:53.328Z,10.90
2018-12-21T16:53:27.641Z,11.00
2018-12-21T16:56:02.014Z,11.10
2018-12-21T16:58:36.524Z,11.10
2018-12-21T17:01:10.901Z,11.10
2018-12-21T17:03:45.226Z,11.10
2018-12-21T17:06:19.567Z,11.10
2018-12-21T17:08:54.007Z,11.20
2018-12-21T17:11:28.213Z,11.20
2018-12-21T17:14:02.647Z,11.30
2018-12-21T17:16:36.881Z,11.30
2018-12-21T17:19:16.023Z,11.30
2018-12-21T17:21:53.162Z,11.30
2018-12-21T17:24:27.533Z,11.30
2018-12-21T17:27:01.874Z,11.20
2018-12-21T17:29:37.049Z,11.30
2018-12-21T17:32:11.393Z,11.20
2018-12-21T17:34:45.669Z,11.30
2018-12-21T17:37:20.082Z,11.30
2018-12-21T17:39:54.389Z,11.30
2018-12-21T17:42:28.765Z,11.30
2018-12-21T17:45:03.217Z,11.30
2018-12-21T17:47:37.562Z,11.20
2018-12-21T17:50:11.865Z,11.30
2018-12-21T17:52:46.243Z,11.40
2018-12-21T17:55:20.652Z,11.30
2018-12-21T17:57:54.927Z,11.30
2018-12-21T18:00:29.154Z,11.40
2018-12-21T18:03:03.460Z,11.40
2018-12-21T18:05:37.758Z,11.40
2018-12-21T18:08:12.045Z,11.40
2018-12-21T18:10:46.345Z,11.40
2018-12-21T18:13:20.572Z,11.40
2018-12-21T18:15:54.827Z,11.40
2018-12-21T18:18:29.065Z,11.40
2018-12-21T18:21:03.782Z,11.50
2018-12-21T18:23:38.757Z,11.40
2018-12-21T18:26:14.089Z,11.40
2018-12-21T18:28:48.448Z,11.30
2018-12-21T18:31:32.039Z,11.30
2018-12-21T18:34:09.546Z,11.30
2018-12-21T18:36:43.844Z,11.30
2018-12-21T18:39:18.073Z,11.30
2018-12-21T18:41:52.401Z,11.40
2018-12-21T18:44:26.646Z,11.40
2018-12-21T18:47:00.902Z,11.40
2018-12-21T18:49:35.746Z,11.40
2018-12-21T18:52:10.301Z,11.40
2018-12-21T18:54:44.667Z,11.40
2018-12-21T18:57:20.308Z,11.30
2018-12-21T18:59:54.673Z,11.30
2018-12-21T19:02:29.143Z,11.30
2018-12-21T19:05:03.887Z,11.20
2018-12-21T19:07:38.103Z,11.30
2018-12-21T19:10:12.506Z,11.30
2018-12-21T19:12:46.797Z,11.30
2018-12-21T19:15:22.580Z,11.30
2018-12-21T19:17:57.080Z,11.30
2018-12-21T19:20:31.446Z,11.20
2018-12-21T19:23:07.658Z,11.20
2018-12-21T19:25:41.992Z,11.30
2018-12-21T19:28:16.335Z,11.20
2018-12-21T19:30:52.655Z,11.20
2018-12-21T19:33:26.894Z,11.20
2018-12-21T19:36:01.460Z,11.20
2018-12-21T19:38:35.766Z,11.10
2018-12-21T19:41:11.883Z,11.10
2018-12-21T19:43:46.415Z,11.00
2018-12-21T19:46:20.790Z,11.00
2018-12-21T19:48:55.132Z,11.00
2018-12-21T19:51:29.393Z,11.00
2018-12-21T19:54:03.869Z,11.00
2018-12-21T19:56:46.591Z,11.00
2018-12-21T19:59:20.931Z,11.00
2018-12-21T20:01:55.209Z,11.00
2018-12-21T20:04:29.552Z,11.00
2018-12-21T20:07:04.125Z,11.00
2018-12-21T20:09:38.366Z,10.90
2018-12-21T20:12:12.688Z,10.90
2018-12-21T20:14:47.916Z,10.90
2018-12-21T20:17:26.036Z,10.80
2018-12-21T20:20:02.903Z,10.90
2018-12-21T20:22:46.549Z,10.80
2018-12-21T20:25:20.849Z,10.70
2018-12-21T20:27:55.188Z,10.70
2018-12-21T20:30:29.610Z,10.70
2018-12-21T20:33:04.204Z,10.80
2018-12-21T20:35:38.470Z,10.70
2018-12-21T20:38:21.107Z,10.70
2018-12-21T20:40:49.201Z,10.70
2018-12-21T20:43:24.681Z,10.70
2018-12-21T20:45:59.186Z,10.80
2018-12-21T20:48:33.599Z,10.80
2018-12-21T20:51:07.861Z,10.80
2018-12-21T20:53:42.272Z,10.90
2018-12-21T20:56:16.698Z,10.90
2018-12-21T20:58:56.304Z,10.90
2018-12-21T21:01:30.902Z,11.00
2018-12-21T21:04:05.347Z,11.00
2018-12-21T21:06:39.692Z,11.10
2018-12-21T21:09:14.561Z,11.10
2018-12-21T21:11:48.980Z,11.10
2018-12-21T21:14:24.268Z,11.10
2018-12-21T21:16:58.508Z,11.20
2018-12-21T21:19:36.071Z,11.20
2018-12-21T21:22:10.454Z,11.20
2018-12-21T21:24:44.728Z,11.30
2018-12-21T21:27:19.004Z,11.40
2018-12-21T21:29:53.354Z,11.40
2018-12-21T21:32:27.579Z,11.40
2018-12-21T21:35:01.786Z,11.40
2018-12-21T21:37:36.015Z,11.30
2018-12-21T21:40:13.979Z,11.20
2018-12-21T21:42:57.198Z,11.20
2018-12-21T21:45:25.213Z,11.10
2018-12-21T21:47:59.556Z,11.10
2018-12-21T21:50:34.348Z,11.00
2018-12-21T21:53:10.184Z,10.90
2018-12-21T21:55:44.601Z,10.90
2018-12-21T21:58:18.962Z,11.00
2018-12-21T22:00:54.335Z,11.00
2018-12-21T22:03:28.582Z,11.00
2018-12-21T22:06:03.082Z,10.90
2018-12-21T22:08:37.449Z,11.00
2018-12-21T22:11:11.758Z,11.00
2018-12-21T22:13:46.092Z,11.00
2018-12-21T22:16:20.437Z,11.10
2018-12-21T22:18:55.657Z,11.10
2018-12-21T22:21:30.202Z,11.10
2018-12-21T22:24:04.426Z,11.20
2018-12-21T22:26:38.598Z,11.20
2018-12-21T22:29:13.020Z,11.20
2018-12-21T22:31:47.529Z,11.20
2018-12-21T22:34:22.946Z,11.20
2018-12-21T22:36:57.189Z,11.10
2018-12-21T22:39:31.421Z,11.20
2018-12-21T22:42:05.739Z,11.20
2018-12-21T22:44:39.962Z,11.10
2018-12-21T22:47:14.174Z,11.10
2018-12-21T22:49:48.576Z,11.10
2018-12-21T22:52:22.834Z,11.10
2018-12-21T22:54:57.098Z,11.10
2018-12-21T22:57:31.310Z,11.00
2018-12-21T23:00:10.300Z,11.00
2018-12-21T23:02:44.661Z,11.00
2018-12-21T23:05:19.004Z,11.00
2018-12-21T23:07:53.217Z,11.00
2018-12-21T23:10:27.509Z,11.00
2018-12-21T23:13:01.898Z,11.00
2018-12-21T23:15:36.210Z,10.90
2018-12-21T23:18:10.573Z,10.90
2018-12-21T23:20:44.913Z,10.90
2018-12-21T23:23:19.217Z,10.90
2018-12-21T23:25:53.430Z,10.90
2018-12-21T23:28:27.641Z,10.80
2018-12-21T23:31:02.033Z,10.90
2018-12-21T23:33:36.374Z,10.90
2018-12-21T23:36:10.782Z,10.80
2018-12-21T23:38:45.081Z,10.80
2018-12-21T23:41:19.297Z,10.80
2018-12-21T23:43:53.621Z,10.80
2018-12-21T23:46:27.939Z,10.80
2018-12-21T23:49:02.437Z,10.80
2018-12-21T23:51:36.767Z,10.80
2018-12-21T23:54:11.098Z,10.80
2018-12-21T23:56:45.422Z,10.80
2018-12-21T23:59:19.745Z,10.80
